Greenville, Michigan
Current Conditions -  °F | °C
As of 5:14 AM on Saturday 20 Dec 2014 (Local Time) from KY70 Reporting Station
Clear Clear  
Wind Chill: 19°   Ceiling: Unl
Heat Index: 19°   Visibility: 7mi
Dew Point: 18°   Wind: 0mph
Humidity: 98%   Direction: NA
Pressure: 30.27"   Gusts: NA
Location:  43.18°N, 85.25°W
Report Text: KY70 201014Z AUTO 00000KT 7SM CLR M07/M08 A3027 RMK AO2 T10751078
Loading
Personal Weather Stations






























Interactive Weather Map New forecast layout! Learn more

10-Day Weather Forecast

Advertisements
Track Severe Weather on mobile